SAME/MDZ METAR and TAF weather

Enter ICAO airport designator
Station Type Date Time Source
SAME METAR 2022/06/29 00:00 UTC NOAA

SAME 290000Z 00000KT CAVOK 10/M02 Q1016


Station Type Date Time Source
SAME Decoded METAR 2022/06/29 00:00 UTC NOAA

Mendoza Aerodrome, Argentina (SAME) 32-50S 068-47W 704M
Jun 28, 2022 - 08:00 PM EDT / 2022.06.29 0000 UTC
Wind: Calm:0
Visibility: greater than 7 mile(s):0
Temperature: 50 F (10 C)
Dew Point: 28 F (-2 C)
Relative Humidity: 42%
Pressure (altimeter): 30.00 in. Hg (1016 hPa)
ob: SAME 290000Z 00000KT CAVOK 10/M02 Q1016
cycle: 0

Station Type Date Time Source
SAME TAF 2022/06/28 18:03 UTC NOAA

TAF TAF SAME 281700Z 2818/2918 36010KT CAVOK TX17/2820Z TN02/2911Z
BECMG 2822/2900 VRB03KT CAVOK
TEMPO 2912/2916 VRB03KT 5000 BR NSC

Example: see airport list